createdAt,value
2023-01-08T00:01:10.209Z,193.02
2023-01-08T00:03:38.285Z,182.15
2023-01-08T00:06:07.680Z,182.07
2023-01-08T00:08:34.889Z,177.70
2023-01-08T00:11:01.649Z,177.88
2023-01-08T00:13:29.028Z,182.57
2023-01-08T00:15:55.882Z,186.65
2023-01-08T00:18:24.238Z,185.55
2023-01-08T00:20:50.942Z,182.23
2023-01-08T00:23:19.587Z,178.07
2023-01-08T00:25:46.585Z,184.02
2023-01-08T00:28:15.173Z,170.48
2023-01-08T00:30:42.278Z,174.27
2023-01-08T00:33:09.849Z,172.98
2023-01-08T00:35:39.026Z,183.25
2023-01-08T00:38:06.686Z,170.43
2023-01-08T00:40:35.005Z,169.38
2023-01-08T00:43:01.866Z,157.57
2023-01-08T00:45:28.672Z,159.88
2023-01-08T00:47:55.621Z,167.13
2023-01-08T00:50:22.641Z,158.50
2023-01-08T00:52:49.375Z,166.57
2023-01-08T00:55:16.274Z,158.40
2023-01-08T00:57:43.118Z,166.48
2023-01-08T01:00:13.225Z,174.82
2023-01-08T01:02:40.796Z,162.20
2023-01-08T01:05:09.040Z,165.32
2023-01-08T01:07:36.045Z,176.80
2023-01-08T01:10:03.390Z,163.55
2023-01-08T01:12:30.272Z,169.23
2023-01-08T01:14:57.080Z,168.18
2023-01-08T01:17:23.790Z,173.85
2023-01-08T01:19:50.507Z,169.30
2023-01-08T01:22:17.265Z,164.82
2023-01-08T01:24:44.049Z,169.80
2023-01-08T01:27:10.781Z,162.80
2023-01-08T01:29:37.561Z,166.10
2023-01-08T01:32:04.655Z,171.75
2023-01-08T01:34:31.444Z,162.30
2023-01-08T01:36:58.323Z,159.43
2023-01-08T01:39:25.200Z,152.75
2023-01-08T01:41:53.383Z,153.43
2023-01-08T01:44:37.857Z,161.82
2023-01-08T01:47:28.416Z,165.60
2023-01-08T01:50:22.409Z,166.80
2023-01-08T01:52:53.185Z,159.65
2023-01-08T01:55:20.705Z,151.85
2023-01-08T01:57:59.148Z,153.77
2023-01-08T02:00:27.428Z,156.00
2023-01-08T02:02:55.902Z,161.25
2023-01-08T02:05:29.297Z,159.82
2023-01-08T02:08:04.825Z,164.60
2023-01-08T02:10:43.455Z,161.13
2023-01-08T02:13:17.755Z,158.88
2023-01-08T02:15:51.726Z,161.93
2023-01-08T02:18:30.240Z,152.93
2023-01-08T02:21:24.469Z,154.43
2023-01-08T02:24:08.458Z,158.45
2023-01-08T02:26:37.103Z,156.20
2023-01-08T02:29:08.812Z,144.00
2023-01-08T02:31:38.449Z,154.68
2023-01-08T02:34:05.453Z,162.82
2023-01-08T02:36:42.130Z,156.90
2023-01-08T02:39:25.650Z,155.52
2023-01-08T02:42:11.057Z,161.80
2023-01-08T02:44:55.372Z,160.38
2023-01-08T02:47:30.955Z,150.20
2023-01-08T02:50:08.965Z,154.50
2023-01-08T02:52:42.613Z,160.57
2023-01-08T02:55:10.806Z,157.38
2023-01-08T02:57:38.353Z,156.05
2023-01-08T03:00:06.231Z,163.90
2023-01-08T03:02:36.790Z,156.68
2023-01-08T03:05:13.796Z,163.80
2023-01-08T03:07:40.718Z,159.13
2023-01-08T03:10:08.328Z,159.30
2023-01-08T03:12:47.654Z,160.13
2023-01-08T03:15:23.171Z,151.43
2023-01-08T03:17:54.505Z,150.73
2023-01-08T03:20:25.069Z,145.73
2023-01-08T03:22:56.751Z,164.43
2023-01-08T03:25:26.315Z,154.80
2023-01-08T03:27:58.161Z,154.05
2023-01-08T03:30:25.516Z,156.45
2023-01-08T03:32:55.891Z,152.45
2023-01-08T03:35:24.740Z,157.02
2023-01-08T03:38:04.826Z,168.18
2023-01-08T03:40:38.232Z,154.13
2023-01-08T03:43:05.117Z,167.35
2023-01-08T03:45:33.066Z,155.02
2023-01-08T03:48:02.732Z,166.07
2023-01-08T03:50:31.504Z,160.55
2023-01-08T03:53:00.621Z,157.70
2023-01-08T03:55:27.674Z,157.57
2023-01-08T03:57:54.476Z,155.20
2023-01-08T04:00:21.266Z,157.80
2023-01-08T04:02:48.622Z,154.52
2023-01-08T04:05:15.397Z,158.57
2023-01-08T04:07:42.125Z,158.77
2023-01-08T04:10:09.371Z,158.48
2023-01-08T04:12:36.078Z,155.52
2023-01-08T04:15:03.042Z,166.70
2023-01-08T04:17:30.028Z,147.93
2023-01-08T04:19:56.738Z,157.70
2023-01-08T04:22:23.407Z,151.45
2023-01-08T04:24:50.174Z,152.02
2023-01-08T04:27:16.973Z,159.65
2023-01-08T04:29:43.683Z,157.90
2023-01-08T04:32:10.462Z,159.23
2023-01-08T04:34:37.153Z,163.45
2023-01-08T04:37:03.985Z,158.00
2023-01-08T04:39:30.699Z,168.18
2023-01-08T04:41:57.471Z,161.23
2023-01-08T04:44:24.251Z,158.35
2023-01-08T04:46:50.980Z,202.10
2023-01-08T04:49:17.715Z,175.98
2023-01-08T04:51:44.545Z,179.65
2023-01-08T04:54:11.221Z,163.73
2023-01-08T04:56:37.978Z,164.15
2023-01-08T04:59:04.687Z,170.00
2023-01-08T05:01:31.489Z,178.80
2023-01-08T05:04:00.551Z,171.75
2023-01-08T05:06:29.601Z,174.50
2023-01-08T05:08:57.111Z,162.10
2023-01-08T05:11:24.538Z,159.23
2023-01-08T05:13:52.714Z,168.88
2023-01-08T05:16:20.403Z,158.77
2023-01-08T05:18:47.439Z,161.27
2023-01-08T05:21:14.976Z,163.38
2023-01-08T05:23:46.435Z,157.65
2023-01-08T05:26:13.601Z,164.00
2023-01-08T05:28:40.303Z,169.45
2023-01-08T05:31:07.151Z,170.20
2023-01-08T05:33:33.929Z,182.13
2023-01-08T05:36:00.628Z,175.63
2023-01-08T05:38:27.390Z,165.43
2023-01-08T05:40:54.503Z,170.93
2023-01-08T05:43:21.238Z,161.27
2023-01-08T05:45:48.099Z,158.40
2023-01-08T05:48:14.927Z,159.68
2023-01-08T05:50:41.820Z,173.32
2023-01-08T05:53:09.607Z,173.57
2023-01-08T05:55:36.706Z,181.13
2023-01-08T05:58:05.623Z,165.77
2023-01-08T06:00:33.103Z,173.32
2023-01-08T06:02:59.984Z,177.80
2023-01-08T06:05:26.970Z,175.35
2023-01-08T06:07:53.745Z,170.90
2023-01-08T06:10:20.492Z,162.63
2023-01-08T06:12:47.340Z,163.60
2023-01-08T06:15:14.063Z,155.88
2023-01-08T06:17:41.281Z,159.43
2023-01-08T06:20:08.746Z,165.07
2023-01-08T06:22:35.783Z,169.73
2023-01-08T06:25:03.835Z,162.63
2023-01-08T06:27:30.645Z,162.23
2023-01-08T06:29:57.383Z,174.88
2023-01-08T06:32:24.148Z,165.00
2023-01-08T06:34:50.870Z,162.80
2023-01-08T06:37:17.654Z,172.45
2023-01-08T06:39:44.387Z,166.77
2023-01-08T06:42:11.171Z,174.30
2023-01-08T06:44:37.938Z,168.63
2023-01-08T06:47:04.745Z,162.35
2023-01-08T06:49:31.468Z,173.30
2023-01-08T06:51:58.209Z,173.07
2023-01-08T06:54:24.941Z,165.68
2023-01-08T06:56:54.224Z,164.77
2023-01-08T06:59:21.711Z,165.55
2023-01-08T07:01:49.126Z,176.70
2023-01-08T07:04:16.149Z,170.23
2023-01-08T07:06:42.844Z,164.73
2023-01-08T07:09:13.367Z,164.60
2023-01-08T07:11:41.081Z,170.15
2023-01-08T07:14:08.282Z,173.00
2023-01-08T07:16:35.916Z,178.30
2023-01-08T07:19:03.111Z,170.45
2023-01-08T07:21:31.179Z,178.57
2023-01-08T07:23:59.548Z,178.48
2023-01-08T07:26:27.051Z,181.38
2023-01-08T07:28:53.853Z,187.82
2023-01-08T07:31:23.571Z,179.30
2023-01-08T07:33:50.702Z,173.63
2023-01-08T07:36:22.365Z,186.15
2023-01-08T07:38:49.937Z,173.93
2023-01-08T07:41:17.575Z,178.15
2023-01-08T07:43:44.628Z,168.75
2023-01-08T07:46:11.496Z,188.77
2023-01-08T07:48:38.214Z,167.95
2023-01-08T07:51:07.197Z,186.77
2023-01-08T07:53:34.774Z,179.02
2023-01-08T07:56:03.689Z,180.98
2023-01-08T07:58:30.869Z,187.98
2023-01-08T08:00:59.406Z,179.93
2023-01-08T08:03:26.675Z,176.52
2023-01-08T08:05:53.995Z,176.75
2023-01-08T08:08:21.290Z,178.27
2023-01-08T08:10:47.997Z,175.65
2023-01-08T08:13:15.311Z,170.77
2023-01-08T08:15:42.173Z,182.43
2023-01-08T08:18:09.696Z,175.30
2023-01-08T08:20:37.502Z,167.98
2023-01-08T08:23:08.618Z,166.02
2023-01-08T08:25:36.184Z,170.98
2023-01-08T08:28:03.435Z,166.15
2023-01-08T08:30:32.177Z,178.90
2023-01-08T08:33:01.142Z,176.63
2023-01-08T08:35:28.348Z,204.40
2023-01-08T08:37:55.724Z,206.88
2023-01-08T08:40:22.511Z,175.73
2023-01-08T08:42:49.404Z,190.35
2023-01-08T08:45:16.210Z,181.65
2023-01-08T08:47:42.893Z,183.02
2023-01-08T08:50:10.236Z,186.15
2023-01-08T08:52:37.664Z,176.10
2023-01-08T08:55:04.675Z,160.07
2023-01-08T08:57:31.411Z,178.13
2023-01-08T09:00:00.924Z,172.55
2023-01-08T09:02:27.959Z,160.30
2023-01-08T09:04:54.853Z,170.05
2023-01-08T09:07:21.582Z,172.00
2023-01-08T09:09:48.328Z,155.77
2023-01-08T09:12:15.293Z,165.40
2023-01-08T09:14:41.975Z,164.00
2023-01-08T09:17:08.692Z,165.98
2023-01-08T09:19:35.528Z,175.10
2023-01-08T09:22:03.412Z,183.68
2023-01-08T09:24:32.383Z,166.10
2023-01-08T09:26:59.659Z,163.40
2023-01-08T09:29:26.871Z,205.05
2023-01-08T09:31:53.666Z,159.52
2023-01-08T09:34:20.504Z,185.48
2023-01-08T09:36:47.439Z,179.63
2023-01-08T09:39:14.528Z,187.25
2023-01-08T09:41:45.261Z,166.57
2023-01-08T09:44:17.905Z,169.07
2023-01-08T09:46:46.741Z,174.02
2023-01-08T09:49:21.468Z,165.25
2023-01-08T09:51:48.327Z,168.25
2023-01-08T09:54:16.672Z,191.52
2023-01-08T09:56:44.725Z,198.50
2023-01-08T09:59:16.532Z,198.50
2023-01-08T10:01:45.858Z,211.20
2023-01-08T10:04:24.823Z,200.48
2023-01-08T10:06:56.232Z,214.93
2023-01-08T10:09:28.765Z,197.02
2023-01-08T10:12:02.659Z,197.73
2023-01-08T10:14:33.513Z,193.52
2023-01-08T10:17:52.668Z,191.52
2023-01-08T10:20:24.293Z,229.95
2023-01-08T10:22:56.543Z,232.70
2023-01-08T10:25:26.998Z,231.98
2023-01-08T10:28:05.306Z,210.10
2023-01-08T10:30:42.725Z,227.02
2023-01-08T10:33:20.578Z,212.27
2023-01-08T10:35:54.940Z,250.80
2023-01-08T10:38:34.206Z,211.38
2023-01-08T10:41:09.223Z,218.55
2023-01-08T10:43:58.834Z,218.27
2023-01-08T10:46:32.238Z,208.57
2023-01-08T10:49:01.356Z,194.82
2023-01-08T10:51:30.811Z,192.48
2023-01-08T10:54:13.847Z,192.88
2023-01-08T10:56:43.156Z,196.60
2023-01-08T10:59:23.532Z,183.98
2023-01-08T11:01:53.090Z,190.63
2023-01-08T11:04:32.793Z,198.23
2023-01-08T11:07:05.945Z,210.00
2023-01-08T11:09:48.242Z,199.35
2023-01-08T11:12:41.123Z,201.13
2023-01-08T11:15:25.350Z,202.80
2023-01-08T11:17:52.207Z,205.55
2023-01-08T11:20:28.745Z,198.43
2023-01-08T11:23:17.374Z,206.68
2023-01-08T11:26:08.008Z,214.18
2023-01-08T11:29:10.358Z,197.80
2023-01-08T11:31:47.432Z,203.40
2023-01-08T11:34:22.654Z,202.05
2023-01-08T11:36:54.665Z,216.15
2023-01-08T11:39:21.449Z,204.85
2023-01-08T11:42:04.131Z,199.18
2023-01-08T11:44:30.872Z,192.63
2023-01-08T11:47:05.456Z,211.25
2023-01-08T11:49:44.475Z,190.95
2023-01-08T11:52:28.275Z,207.55
2023-01-08T11:55:24.873Z,210.32
2023-01-08T11:58:15.200Z,200.32
2023-01-08T12:00:53.069Z,193.52
2023-01-08T12:03:47.135Z,209.38
2023-01-08T12:06:41.873Z,197.73
2023-01-08T12:09:27.240Z,182.60
2023-01-08T12:12:13.012Z,182.77
2023-01-08T12:14:57.968Z,191.65
2023-01-08T12:17:49.165Z,181.70
2023-01-08T12:20:24.209Z,172.07
2023-01-08T12:23:04.204Z,180.45
2023-01-08T12:25:55.240Z,188.60
2023-01-08T12:28:31.110Z,172.27
2023-01-08T12:31:19.244Z,174.68
2023-01-08T12:33:57.004Z,178.02
2023-01-08T12:36:39.436Z,181.02
2023-01-08T12:39:30.002Z,183.52
2023-01-08T12:42:24.462Z,181.20
2023-01-08T12:44:57.690Z,181.30
2023-01-08T12:47:29.126Z,181.57
2023-01-08T12:50:18.601Z,180.73
2023-01-08T12:52:53.634Z,186.00
2023-01-08T12:55:46.381Z,190.45
2023-01-08T12:58:31.000Z,187.10
2023-01-08T13:01:22.566Z,198.57
2023-01-08T13:03:50.096Z,194.80
2023-01-08T13:06:19.665Z,186.80
2023-01-08T13:08:52.387Z,184.10
2023-01-08T13:11:33.581Z,187.65
2023-01-08T13:14:06.535Z,187.68
2023-01-08T13:17:04.428Z,180.70
2023-01-08T13:19:42.533Z,181.48
2023-01-08T13:22:55.037Z,177.18
2023-01-08T13:25:21.785Z,181.32
2023-01-08T13:27:48.882Z,186.52
2023-01-08T13:30:38.338Z,186.27
2023-01-08T13:33:35.066Z,182.63
2023-01-08T13:36:29.575Z,182.27
2023-01-08T13:39:11.634Z,181.57
2023-01-08T13:41:44.311Z,180.27
2023-01-08T13:44:34.582Z,182.10
2023-01-08T13:47:05.069Z,182.48
2023-01-08T13:49:45.359Z,190.70
2023-01-08T13:52:42.692Z,189.18
2023-01-08T13:55:20.091Z,197.27
2023-01-08T13:57:51.722Z,182.77
2023-01-08T14:00:24.403Z,177.60
2023-01-08T14:02:51.818Z,179.38
2023-01-08T14:05:23.451Z,180.43
2023-01-08T14:07:50.324Z,184.10
2023-01-08T14:10:20.721Z,181.30
2023-01-08T14:12:48.504Z,177.18
2023-01-08T14:15:28.692Z,186.20
2023-01-08T14:17:57.315Z,183.07
2023-01-08T14:20:40.504Z,189.80
2023-01-08T14:23:21.830Z,189.32
2023-01-08T14:25:50.864Z,187.82
2023-01-08T14:28:21.795Z,189.60
2023-01-08T14:30:54.255Z,175.98
2023-01-08T14:33:32.246Z,184.48
2023-01-08T14:36:00.892Z,182.15
2023-01-08T14:38:27.880Z,181.02
2023-01-08T14:41:05.493Z,174.38
2023-01-08T14:43:41.678Z,175.70
2023-01-08T14:46:27.397Z,175.30
2023-01-08T14:48:55.885Z,181.57
2023-01-08T14:51:26.234Z,176.82
2023-01-08T14:54:01.338Z,185.40
2023-01-08T14:56:32.551Z,176.98
2023-01-08T14:59:00.231Z,182.90
2023-01-08T15:01:29.552Z,182.90
2023-01-08T15:04:14.978Z,178.93
2023-01-08T15:06:42.322Z,173.50
2023-01-08T15:09:31.104Z,180.77
2023-01-08T15:12:03.581Z,171.90
2023-01-08T15:14:33.428Z,179.98
2023-01-08T15:17:09.321Z,176.60
2023-01-08T15:19:42.583Z,173.25
2023-01-08T15:22:18.315Z,178.55
2023-01-08T15:24:53.825Z,177.65
2023-01-08T15:27:20.974Z,180.05
2023-01-08T15:29:51.541Z,177.15
2023-01-08T15:32:18.511Z,180.48
2023-01-08T15:34:46.456Z,182.20
2023-01-08T15:37:14.949Z,173.05
2023-01-08T15:39:42.582Z,175.88
2023-01-08T15:42:41.243Z,178.00
2023-01-08T15:45:17.313Z,171.75
2023-01-08T15:47:44.092Z,181.05
2023-01-08T15:50:11.406Z,175.05
2023-01-08T15:52:40.513Z,171.50
2023-01-08T15:55:10.456Z,177.00
2023-01-08T15:57:38.179Z,176.98
2023-01-08T16:00:07.210Z,182.80
2023-01-08T16:02:47.818Z,164.32
2023-01-08T16:05:17.559Z,180.57
2023-01-08T16:07:46.161Z,182.40
2023-01-08T16:10:14.282Z,177.75
2023-01-08T16:12:41.081Z,187.35
2023-01-08T16:15:08.331Z,179.68
2023-01-08T16:17:36.609Z,188.48
2023-01-08T16:20:07.464Z,185.98
2023-01-08T16:22:34.453Z,173.55
2023-01-08T16:25:01.272Z,172.65
2023-01-08T16:27:28.078Z,175.25
2023-01-08T16:29:55.037Z,173.20
2023-01-08T16:32:21.845Z,174.65
2023-01-08T16:34:48.818Z,169.32
2023-01-08T16:37:15.559Z,183.07
2023-01-08T16:39:42.385Z,185.30
2023-01-08T16:42:09.780Z,180.77
2023-01-08T16:44:36.817Z,174.05
2023-01-08T16:47:03.555Z,168.45
2023-01-08T16:49:30.472Z,170.77
2023-01-08T16:51:57.216Z,166.95
2023-01-08T16:54:24.038Z,173.15
2023-01-08T16:56:52.532Z,174.23
2023-01-08T16:59:23.638Z,174.10
2023-01-08T17:01:54.271Z,171.32
2023-01-08T17:04:21.342Z,174.27
2023-01-08T17:06:48.106Z,165.20
2023-01-08T17:09:15.054Z,176.20
2023-01-08T17:11:42.230Z,170.05
2023-01-08T17:14:09.219Z,168.27
2023-01-08T17:16:36.131Z,165.23
2023-01-08T17:19:03.018Z,176.98
2023-01-08T17:21:29.829Z,176.50
2023-01-08T17:23:56.542Z,165.77
2023-01-08T17:26:23.358Z,170.30
2023-01-08T17:28:50.766Z,169.57
2023-01-08T17:31:19.494Z,167.27
2023-01-08T17:33:51.201Z,168.65
2023-01-08T17:36:19.054Z,169.15
2023-01-08T17:38:52.990Z,167.55
2023-01-08T17:41:39.263Z,166.90
2023-01-08T17:44:07.937Z,171.30
2023-01-08T17:46:36.355Z,165.77
2023-01-08T17:49:04.393Z,171.73
2023-01-08T17:51:32.500Z,177.55
2023-01-08T17:53:59.924Z,178.27
2023-01-08T17:56:27.499Z,164.60
2023-01-08T17:58:54.323Z,169.52
2023-01-08T18:01:21.494Z,165.55
2023-01-08T18:03:48.606Z,164.52
2023-01-08T18:06:15.542Z,165.93
2023-01-08T18:08:42.281Z,171.25
2023-01-08T18:11:10.376Z,175.02
2023-01-08T18:13:38.135Z,166.60
2023-01-08T18:16:10.952Z,172.85
2023-01-08T18:18:38.846Z,168.48
2023-01-08T18:21:10.126Z,166.93
2023-01-08T18:23:36.963Z,178.52
2023-01-08T18:26:09.498Z,162.65
2023-01-08T18:28:37.664Z,175.05
2023-01-08T18:31:09.514Z,165.38
2023-01-08T18:33:37.432Z,168.52
2023-01-08T18:36:09.246Z,161.30
2023-01-08T18:38:41.385Z,176.80
2023-01-08T18:41:09.467Z,169.70
2023-01-08T18:43:37.209Z,183.55
2023-01-08T18:46:08.515Z,175.70
2023-01-08T18:48:35.634Z,170.90
2023-01-08T18:51:05.662Z,173.75
2023-01-08T18:53:33.664Z,175.15
2023-01-08T18:56:01.763Z,170.80
2023-01-08T18:58:29.301Z,163.85
2023-01-08T19:00:56.378Z,164.80
2023-01-08T19:03:23.138Z,169.57
2023-01-08T19:05:49.925Z,169.30
2023-01-08T19:08:16.761Z,179.20
2023-01-08T19:10:43.524Z,165.18
2023-01-08T19:13:10.296Z,177.73
2023-01-08T19:15:37.139Z,175.88
2023-01-08T19:18:05.827Z,185.85
2023-01-08T19:20:32.553Z,187.77
2023-01-08T19:22:59.258Z,185.05
2023-01-08T19:25:25.982Z,183.50
2023-01-08T19:27:52.781Z,185.60
2023-01-08T19:30:19.542Z,183.48
2023-01-08T19:32:49.633Z,197.23
2023-01-08T19:35:16.490Z,185.32
2023-01-08T19:37:43.280Z,189.20
2023-01-08T19:40:10.788Z,193.38
2023-01-08T19:42:56.108Z,199.45
2023-01-08T19:45:23.008Z,191.85
2023-01-08T19:47:50.100Z,190.43
2023-01-08T19:50:17.236Z,191.32
2023-01-08T19:52:44.080Z,182.32
2023-01-08T19:55:10.887Z,173.65
2023-01-08T19:57:37.615Z,173.98
2023-01-08T20:00:05.352Z,176.52
2023-01-08T20:02:38.481Z,184.48
2023-01-08T20:05:05.883Z,193.93
2023-01-08T20:07:32.858Z,194.93
2023-01-08T20:09:59.823Z,187.10
2023-01-08T20:12:26.554Z,196.43
2023-01-08T20:14:53.397Z,186.88
2023-01-08T20:17:25.052Z,203.05
2023-01-08T20:19:52.880Z,207.32
2023-01-08T20:22:19.647Z,194.20
2023-01-08T20:24:47.274Z,194.02
2023-01-08T20:27:14.278Z,197.20
2023-01-08T20:29:41.771Z,204.75
2023-01-08T20:32:08.544Z,220.05
2023-01-08T20:34:35.322Z,215.85
2023-01-08T20:37:06.370Z,209.40
2023-01-08T20:39:33.166Z,208.80
2023-01-08T20:42:04.156Z,209.75
2023-01-08T20:44:32.719Z,221.88
2023-01-08T20:47:00.491Z,226.23
2023-01-08T20:49:27.750Z,212.90
2023-01-08T20:51:59.456Z,214.75
2023-01-08T20:54:28.157Z,224.98
2023-01-08T20:56:56.584Z,215.05
2023-01-08T20:59:26.629Z,210.63
2023-01-08T21:01:53.749Z,218.02
2023-01-08T21:04:20.970Z,215.40
2023-01-08T21:06:47.844Z,240.50
2023-01-08T21:09:16.618Z,237.07
2023-01-08T21:11:43.520Z,225.23
2023-01-08T21:14:11.004Z,230.15
2023-01-08T21:16:39.703Z,229.13
2023-01-08T21:19:06.944Z,220.85
2023-01-08T21:21:35.169Z,233.10
2023-01-08T21:24:04.645Z,228.27
2023-01-08T21:26:34.041Z,235.30
2023-01-08T21:29:03.177Z,212.98
2023-01-08T21:31:30.587Z,222.82
2023-01-08T21:34:00.192Z,209.27
2023-01-08T21:36:29.353Z,203.25
2023-01-08T21:38:56.795Z,201.85
2023-01-08T21:41:44.160Z,205.38
2023-01-08T21:44:40.904Z,211.05
2023-01-08T21:47:11.188Z,201.23
2023-01-08T21:49:38.641Z,194.95
2023-01-08T21:52:24.810Z,207.55
2023-01-08T21:54:51.957Z,203.60
2023-01-08T21:57:18.844Z,203.63
2023-01-08T21:59:48.284Z,199.35
2023-01-08T22:02:16.669Z,202.80
2023-01-08T22:04:44.788Z,217.02
2023-01-08T22:07:12.111Z,213.40
2023-01-08T22:09:38.986Z,207.55
2023-01-08T22:12:06.784Z,207.38
2023-01-08T22:14:34.639Z,205.20
2023-01-08T22:17:04.004Z,208.82
2023-01-08T22:19:30.885Z,215.23
2023-01-08T22:21:57.644Z,221.63
2023-01-08T22:24:24.388Z,214.45
2023-01-08T22:26:51.181Z,212.45
2023-01-08T22:29:17.912Z,208.70
2023-01-08T22:31:44.718Z,216.20
2023-01-08T22:34:16.994Z,206.50
2023-01-08T22:36:45.084Z,213.32
2023-01-08T22:39:12.519Z,200.63
2023-01-08T22:41:39.265Z,217.50
2023-01-08T22:44:06.263Z,213.90
2023-01-08T22:46:33.281Z,206.10
2023-01-08T22:49:00.054Z,208.77
2023-01-08T22:51:27.594Z,213.00
2023-01-08T22:53:55.651Z,204.13
2023-01-08T22:56:23.342Z,207.15
2023-01-08T22:58:50.582Z,198.40
2023-01-08T23:01:23.133Z,206.70
2023-01-08T23:03:51.089Z,209.30
2023-01-08T23:06:19.269Z,196.45
2023-01-08T23:08:46.579Z,213.18
2023-01-08T23:11:15.333Z,199.90
2023-01-08T23:13:42.145Z,189.32
2023-01-08T23:16:10.895Z,201.88
2023-01-08T23:18:38.517Z,195.23
2023-01-08T23:21:14.869Z,187.52
2023-01-08T23:23:41.873Z,193.95
2023-01-08T23:26:29.712Z,201.38
2023-01-08T23:28:58.500Z,194.43
2023-01-08T23:31:28.058Z,186.85
2023-01-08T23:33:55.333Z,191.90
2023-01-08T23:36:23.153Z,197.30
2023-01-08T23:38:53.010Z,188.23
2023-01-08T23:41:23.089Z,187.82
2023-01-08T23:43:50.356Z,191.10
2023-01-08T23:46:17.971Z,186.68
2023-01-08T23:48:44.811Z,181.75
2023-01-08T23:51:11.660Z,189.60
2023-01-08T23:53:38.448Z,190.20
2023-01-08T23:56:05.629Z,182.05
2023-01-08T23:58:32.404Z,180.23
